createdAt,value
2023-10-16T00:00:42.065Z,52.69
2023-10-16T00:03:19.059Z,54.11
2023-10-16T00:05:53.048Z,54.49
2023-10-16T00:08:26.285Z,57.28
2023-10-16T00:11:02.503Z,55.27
2023-10-16T00:13:40.807Z,54.51
2023-10-16T00:16:17.735Z,57.31
2023-10-16T00:18:52.196Z,57.54
2023-10-16T00:21:26.430Z,57.31
2023-10-16T00:23:59.907Z,59.24
2023-10-16T00:26:33.209Z,57.97
2023-10-16T00:29:18.507Z,57.61
2023-10-16T00:31:54.332Z,58.38
2023-10-16T00:34:27.874Z,61.74
2023-10-16T00:37:03.017Z,64.07
2023-10-16T00:39:38.555Z,64.52
2023-10-16T00:42:12.340Z,63.51
2023-10-16T00:44:48.556Z,67.85
2023-10-16T00:47:21.820Z,63.82
2023-10-16T00:49:55.620Z,64.05
2023-10-16T00:52:28.849Z,68.20
2023-10-16T00:55:02.100Z,64.76
2023-10-16T00:57:36.306Z,62.38
2023-10-16T01:00:13.829Z,64.38
2023-10-16T01:02:47.191Z,64.59
2023-10-16T01:05:25.099Z,64.99
2023-10-16T01:07:59.379Z,69.60
2023-10-16T01:10:33.711Z,68.58
2023-10-16T01:13:10.545Z,71.56
2023-10-16T01:15:48.204Z,73.62
2023-10-16T01:18:21.539Z,81.19
2023-10-16T01:20:54.748Z,77.00
2023-10-16T01:23:29.321Z,68.98
2023-10-16T01:26:03.110Z,66.70
2023-10-16T01:28:36.368Z,65.08
2023-10-16T01:31:09.737Z,66.36
2023-10-16T01:33:45.796Z,63.09
2023-10-16T01:36:19.303Z,64.53
2023-10-16T01:38:53.940Z,65.29
2023-10-16T01:41:27.152Z,64.42
2023-10-16T01:44:04.511Z,65.59
2023-10-16T01:46:37.890Z,66.37
2023-10-16T01:49:11.587Z,66.12
2023-10-16T01:51:45.433Z,68.00
2023-10-16T01:54:23.918Z,67.56
2023-10-16T01:56:57.345Z,65.60
2023-10-16T01:59:30.542Z,65.54
2023-10-16T02:02:03.819Z,63.47
2023-10-16T02:04:38.478Z,65.33
2023-10-16T02:07:13.275Z,66.39
2023-10-16T02:09:48.343Z,65.72
2023-10-16T02:12:21.512Z,64.39
2023-10-16T02:14:55.204Z,63.75
2023-10-16T02:17:28.447Z,66.27
2023-10-16T02:20:12.379Z,63.07
2023-10-16T02:22:47.029Z,66.02
2023-10-16T02:25:24.648Z,66.92
2023-10-16T02:27:57.858Z,68.82
2023-10-16T02:30:36.616Z,66.75
2023-10-16T02:33:19.804Z,67.87
2023-10-16T02:35:54.637Z,66.95
2023-10-16T02:38:30.160Z,67.82
2023-10-16T02:41:05.764Z,68.62
2023-10-16T02:43:42.669Z,71.04
2023-10-16T02:46:19.753Z,73.17
2023-10-16T02:48:53.908Z,69.03
2023-10-16T02:51:27.183Z,71.68
2023-10-16T02:54:01.934Z,66.88
2023-10-16T02:56:37.631Z,72.63
2023-10-16T02:59:10.789Z,70.18
2023-10-16T03:01:46.522Z,69.41
2023-10-16T03:04:20.045Z,67.18
2023-10-16T03:06:55.809Z,67.12
2023-10-16T03:09:30.097Z,68.72
2023-10-16T03:12:09.728Z,67.53
2023-10-16T03:14:57.671Z,68.63
2023-10-16T03:17:36.404Z,65.53
2023-10-16T03:20:18.075Z,64.32
2023-10-16T03:22:52.859Z,66.42
2023-10-16T03:25:49.737Z,67.36
2023-10-16T03:28:24.273Z,66.22
2023-10-16T03:31:03.898Z,64.40
2023-10-16T03:33:37.350Z,64.42
2023-10-16T03:36:10.649Z,65.57
2023-10-16T03:38:44.137Z,64.10
2023-10-16T03:41:29.018Z,66.11
2023-10-16T03:44:15.378Z,65.63
2023-10-16T03:46:50.543Z,64.22
2023-10-16T03:49:24.269Z,63.69
2023-10-16T03:51:57.462Z,62.06
2023-10-16T03:54:32.628Z,64.56
2023-10-16T03:57:11.235Z,60.97
2023-10-16T03:59:48.581Z,61.71
2023-10-16T04:02:24.143Z,61.71
2023-10-16T04:04:59.375Z,64.97
2023-10-16T04:07:32.713Z,62.63
2023-10-16T04:10:22.862Z,63.53
2023-10-16T04:12:56.503Z,61.69
2023-10-16T04:16:01.101Z,65.82
2023-10-16T04:18:34.380Z,62.16
2023-10-16T04:21:29.670Z,65.48
2023-10-16T04:24:06.151Z,63.11
2023-10-16T04:26:58.523Z,64.47
2023-10-16T04:29:31.232Z,62.69
2023-10-16T04:32:20.909Z,66.06
2023-10-16T04:34:54.213Z,65.44
2023-10-16T04:37:38.394Z,70.05
2023-10-16T04:40:44.725Z,63.19
2023-10-16T04:43:38.711Z,65.15
2023-10-16T04:46:21.965Z,64.00
2023-10-16T04:48:56.212Z,63.23
2023-10-16T04:51:52.776Z,60.64
2023-10-16T04:54:29.594Z,62.75
2023-10-16T04:57:25.668Z,65.95
2023-10-16T05:00:13.675Z,63.54
2023-10-16T05:02:53.814Z,63.48
2023-10-16T05:05:47.147Z,63.30
2023-10-16T05:08:32.556Z,61.50
2023-10-16T05:11:23.229Z,65.66
2023-10-16T05:14:20.680Z,64.05
2023-10-16T05:17:08.362Z,65.57
2023-10-16T05:19:48.264Z,64.91
2023-10-16T05:22:40.665Z,66.94
2023-10-16T05:25:31.350Z,71.03
2023-10-16T05:28:22.353Z,70.04
2023-10-16T05:31:15.346Z,70.15
2023-10-16T05:34:06.250Z,67.97
2023-10-16T05:36:56.780Z,62.34
2023-10-16T05:39:49.241Z,64.27
2023-10-16T05:42:39.749Z,60.89
2023-10-16T05:45:30.242Z,62.82
2023-10-16T05:48:20.833Z,65.35
2023-10-16T05:51:11.363Z,65.47
2023-10-16T05:54:02.236Z,64.54
2023-10-16T05:56:54.022Z,61.87
2023-10-16T05:59:44.487Z,58.05
2023-10-16T06:02:34.902Z,58.62
2023-10-16T06:05:25.965Z,57.96
2023-10-16T06:08:16.393Z,66.55
2023-10-16T06:11:06.966Z,66.08
2023-10-16T06:13:59.124Z,62.72
2023-10-16T06:16:32.429Z,60.71
2023-10-16T06:19:08.901Z,58.75
2023-10-16T06:21:49.415Z,63.80
2023-10-16T06:24:34.238Z,65.93
2023-10-16T06:27:11.858Z,63.74
2023-10-16T06:29:51.023Z,66.27
2023-10-16T06:32:27.150Z,65.44
2023-10-16T06:35:02.571Z,62.64
2023-10-16T06:37:39.722Z,62.97
2023-10-16T06:40:18.462Z,62.01
2023-10-16T06:42:55.411Z,59.77
2023-10-16T06:45:41.770Z,57.71
2023-10-16T06:48:17.182Z,55.63
2023-10-16T06:50:55.573Z,56.52
2023-10-16T06:53:31.355Z,57.33
2023-10-16T06:56:04.894Z,55.62
2023-10-16T06:58:38.038Z,59.74
2023-10-16T07:01:20.724Z,61.92
2023-10-16T07:03:55.801Z,65.02
2023-10-16T07:06:33.939Z,62.04
2023-10-16T07:09:09.811Z,65.67
2023-10-16T07:11:44.546Z,62.84
2023-10-16T07:14:19.740Z,62.96
2023-10-16T07:16:54.330Z,60.03
2023-10-16T07:19:27.502Z,62.65
2023-10-16T07:22:02.050Z,60.68
2023-10-16T07:24:36.321Z,61.10
2023-10-16T07:27:13.698Z,63.05
2023-10-16T07:29:46.878Z,62.71
2023-10-16T07:32:23.051Z,69.30
2023-10-16T07:34:56.185Z,70.45
2023-10-16T07:37:29.345Z,62.46
2023-10-16T07:40:02.570Z,62.28
2023-10-16T07:42:36.738Z,62.75
2023-10-16T07:45:11.134Z,64.65
2023-10-16T07:47:46.062Z,64.58
2023-10-16T07:50:20.345Z,65.06
2023-10-16T07:52:53.502Z,64.72
2023-10-16T07:55:40.265Z,65.01
2023-10-16T07:58:24.401Z,70.65
2023-10-16T08:01:18.799Z,66.52
2023-10-16T08:03:53.713Z,67.43
2023-10-16T08:06:27.065Z,64.40
2023-10-16T08:09:14.535Z,65.30
2023-10-16T08:11:54.152Z,63.10
2023-10-16T08:14:28.915Z,68.94
2023-10-16T08:17:05.939Z,68.12
2023-10-16T08:19:40.910Z,70.29
2023-10-16T08:22:15.716Z,66.24
2023-10-16T08:25:00.008Z,71.25
2023-10-16T08:27:46.300Z,65.58
2023-10-16T08:30:34.466Z,64.39
2023-10-16T08:33:11.049Z,60.14
2023-10-16T08:35:46.463Z,61.30
2023-10-16T08:38:22.318Z,59.42
2023-10-16T08:41:01.313Z,54.93
2023-10-16T08:43:54.523Z,59.25
2023-10-16T08:46:33.136Z,46.72
2023-10-16T08:49:10.307Z,39.73
2023-10-16T08:51:45.011Z,39.28
2023-10-16T08:54:36.205Z,37.03
2023-10-16T08:57:12.779Z,34.97
2023-10-16T08:59:50.407Z,33.45
2023-10-16T09:02:27.612Z,37.14
2023-10-16T09:05:01.729Z,40.33
2023-10-16T09:07:41.130Z,43.15
2023-10-16T09:10:16.645Z,42.97
2023-10-16T09:12:55.639Z,46.43
2023-10-16T09:15:28.964Z,50.54
2023-10-16T09:18:02.239Z,47.62
2023-10-16T09:20:42.152Z,60.39
2023-10-16T09:23:17.746Z,56.14
2023-10-16T09:25:56.560Z,44.34
2023-10-16T09:28:33.700Z,41.33
2023-10-16T09:31:12.545Z,37.65
2023-10-16T09:33:49.477Z,131.75
2023-10-16T09:36:23.042Z,120.96
2023-10-16T09:39:01.632Z,44.34
2023-10-16T09:41:43.584Z,105.44
2023-10-16T09:44:24.704Z,107.49
2023-10-16T09:46:58.220Z,31.16
2023-10-16T09:49:34.868Z,51.30
2023-10-16T09:52:08.539Z,46.97
2023-10-16T09:54:43.241Z,36.54
2023-10-16T09:57:23.653Z,41.63
2023-10-16T10:00:01.743Z,28.14
2023-10-16T10:02:52.579Z,26.35
2023-10-16T10:05:35.874Z,22.41
2023-10-16T10:08:18.831Z,22.81
2023-10-16T10:11:28.871Z,17.42
2023-10-16T10:14:10.979Z,20.37
2023-10-16T10:16:51.555Z,19.77
2023-10-16T10:19:33.495Z,19.70
2023-10-16T10:22:18.428Z,22.77
2023-10-16T10:25:19.779Z,19.30
2023-10-16T10:28:10.684Z,16.91
2023-10-16T10:30:46.661Z,17.03
2023-10-16T10:33:38.723Z,18.42
2023-10-16T10:36:31.358Z,18.39
2023-10-16T10:39:40.763Z,18.18
2023-10-16T10:42:25.945Z,20.20
2023-10-16T10:45:22.405Z,17.84
2023-10-16T10:47:57.756Z,18.17
2023-10-16T10:50:34.050Z,17.92
2023-10-16T10:53:15.850Z,21.91
2023-10-16T10:55:57.286Z,20.35
2023-10-16T10:58:34.421Z,19.91
2023-10-16T11:01:27.701Z,18.61
2023-10-16T11:04:03.152Z,20.12
2023-10-16T11:06:43.816Z,15.42
2023-10-16T11:09:19.977Z,16.66
2023-10-16T11:11:55.959Z,15.63
2023-10-16T11:14:36.464Z,14.32
2023-10-16T11:17:11.063Z,14.50
2023-10-16T11:19:48.669Z,13.47
2023-10-16T11:22:24.973Z,16.48
2023-10-16T11:24:58.310Z,14.70
2023-10-16T11:27:35.702Z,13.14
2023-10-16T11:30:12.723Z,13.85
2023-10-16T11:32:51.092Z,16.39
2023-10-16T11:35:28.027Z,15.92
2023-10-16T11:38:05.540Z,13.57
2023-10-16T11:40:43.331Z,13.24
2023-10-16T11:43:20.460Z,22.33
2023-10-16T11:45:58.120Z,15.25
2023-10-16T11:48:40.901Z,13.07
2023-10-16T11:51:16.516Z,14.44
2023-10-16T11:53:49.673Z,12.76
2023-10-16T11:56:22.877Z,14.61
2023-10-16T11:58:56.436Z,12.99
2023-10-16T12:01:37.862Z,13.86
2023-10-16T12:04:21.495Z,18.69
2023-10-16T12:06:55.626Z,18.83
2023-10-16T12:09:38.055Z,22.89
2023-10-16T12:12:20.783Z,35.14
2023-10-16T12:14:54.716Z,16.74
2023-10-16T12:17:29.677Z,16.97
2023-10-16T12:20:10.437Z,21.41
2023-10-16T12:22:45.280Z,21.20
2023-10-16T12:25:19.727Z,19.45
2023-10-16T12:27:53.209Z,17.11
2023-10-16T12:30:28.968Z,17.51
2023-10-16T12:33:02.239Z,15.47
2023-10-16T12:35:37.064Z,16.61
2023-10-16T12:38:11.737Z,13.78
2023-10-16T12:40:44.927Z,18.70
2023-10-16T12:43:18.060Z,16.88
2023-10-16T12:45:52.271Z,23.10
2023-10-16T12:48:29.213Z,25.58
2023-10-16T12:51:11.919Z,20.83
2023-10-16T12:53:46.737Z,53.56
2023-10-16T12:56:22.185Z,47.06
2023-10-16T12:58:55.383Z,31.76
2023-10-16T13:01:28.840Z,20.78
2023-10-16T13:04:02.263Z,19.72
2023-10-16T13:06:37.084Z,14.64
2023-10-16T13:09:16.931Z,13.78
2023-10-16T13:11:50.210Z,15.73
2023-10-16T13:14:26.510Z,13.52
2023-10-16T13:16:59.914Z,11.96
2023-10-16T13:19:33.115Z,13.91
2023-10-16T13:22:12.304Z,13.12
2023-10-16T13:24:45.682Z,15.15
2023-10-16T13:27:21.771Z,15.72
2023-10-16T13:29:54.986Z,15.94
2023-10-16T13:32:29.294Z,17.06
2023-10-16T13:35:13.364Z,13.82
2023-10-16T13:37:49.691Z,13.00
2023-10-16T13:40:23.047Z,13.43
2023-10-16T13:43:01.611Z,11.39
2023-10-16T13:45:35.250Z,11.32
2023-10-16T13:48:11.304Z,13.57
2023-10-16T13:50:48.816Z,31.55
2023-10-16T13:53:23.508Z,23.32
2023-10-16T13:55:57.281Z,15.20
2023-10-16T13:58:30.579Z,13.26
2023-10-16T14:01:04.025Z,13.11
2023-10-16T14:03:37.265Z,10.79
2023-10-16T14:06:17.440Z,11.46
2023-10-16T14:08:54.428Z,11.84
2023-10-16T14:11:34.980Z,12.52
2023-10-16T14:14:11.276Z,12.84
2023-10-16T14:16:47.963Z,15.83
2023-10-16T14:19:23.754Z,16.77
2023-10-16T14:21:58.771Z,13.30
2023-10-16T14:24:35.419Z,14.58
2023-10-16T14:27:08.639Z,12.19
2023-10-16T14:29:46.502Z,14.14
2023-10-16T14:32:21.161Z,13.76
2023-10-16T14:34:54.359Z,14.71
2023-10-16T14:37:27.571Z,14.86
2023-10-16T14:40:05.804Z,16.11
2023-10-16T14:42:40.716Z,17.07
2023-10-16T14:45:13.908Z,19.15
2023-10-16T14:47:48.605Z,21.21
2023-10-16T14:50:25.543Z,22.17
2023-10-16T14:52:58.680Z,53.10
2023-10-16T14:55:33.777Z,49.54
2023-10-16T14:58:19.241Z,21.15
2023-10-16T15:01:02.233Z,19.46
2023-10-16T15:03:39.608Z,19.78
2023-10-16T15:06:14.207Z,22.41
2023-10-16T15:08:48.574Z,23.58
2023-10-16T15:11:23.517Z,25.82
2023-10-16T15:13:57.160Z,24.88
2023-10-16T15:16:30.580Z,26.83
2023-10-16T15:19:09.058Z,26.07
2023-10-16T15:21:43.246Z,26.99
2023-10-16T15:24:16.404Z,27.16
2023-10-16T15:26:51.001Z,28.68
2023-10-16T15:29:24.195Z,29.64
2023-10-16T15:31:57.989Z,30.22
2023-10-16T15:34:31.399Z,28.96
2023-10-16T15:37:05.926Z,28.53
2023-10-16T15:39:41.763Z,28.12
2023-10-16T15:42:16.289Z,30.59
2023-10-16T15:44:51.700Z,28.75
2023-10-16T15:47:27.490Z,29.85
2023-10-16T15:50:02.978Z,27.47
2023-10-16T15:52:36.355Z,30.35
2023-10-16T15:55:09.815Z,30.38
2023-10-16T15:57:47.355Z,34.30
2023-10-16T16:00:27.019Z,34.34
2023-10-16T16:03:01.435Z,37.69
2023-10-16T16:05:35.564Z,39.70
2023-10-16T16:08:10.313Z,37.40
2023-10-16T16:10:43.646Z,37.21
2023-10-16T16:13:18.367Z,37.27
2023-10-16T16:15:51.619Z,38.44
2023-10-16T16:18:24.892Z,38.28
2023-10-16T16:20:58.056Z,40.30
2023-10-16T16:23:31.206Z,40.74
2023-10-16T16:26:04.846Z,45.78
2023-10-16T16:28:40.564Z,46.09
2023-10-16T16:31:17.303Z,43.21
2023-10-16T16:33:52.267Z,45.58
2023-10-16T16:36:26.182Z,47.48
2023-10-16T16:38:59.888Z,45.58
2023-10-16T16:41:35.539Z,45.82
2023-10-16T16:44:10.663Z,45.28
2023-10-16T16:46:45.412Z,43.41
2023-10-16T16:49:19.144Z,46.12
2023-10-16T16:51:52.236Z,44.23
2023-10-16T16:54:27.934Z,45.59
2023-10-16T16:57:01.092Z,49.76
2023-10-16T16:59:36.838Z,50.80
2023-10-16T17:02:10.951Z,44.13
2023-10-16T17:04:45.359Z,49.47
2023-10-16T17:07:18.561Z,47.63
2023-10-16T17:09:51.842Z,50.59
2023-10-16T17:12:25.090Z,53.40
2023-10-16T17:15:02.703Z,58.03
2023-10-16T17:17:36.280Z,58.49
2023-10-16T17:20:13.043Z,55.53
2023-10-16T17:23:05.366Z,57.41
2023-10-16T17:25:41.563Z,59.78
2023-10-16T17:28:17.991Z,63.37
2023-10-16T17:30:52.666Z,70.76
2023-10-16T17:33:26.520Z,71.62
2023-10-16T17:36:03.434Z,74.63
2023-10-16T17:38:37.433Z,76.49
2023-10-16T17:41:10.580Z,82.82
2023-10-16T17:43:43.741Z,82.15
2023-10-16T17:46:18.359Z,85.79
2023-10-16T17:48:51.619Z,84.20
2023-10-16T17:51:26.469Z,88.43
2023-10-16T17:53:59.811Z,89.91
2023-10-16T17:56:34.285Z,91.36
2023-10-16T17:59:07.458Z,90.68
2023-10-16T18:01:42.600Z,95.41
2023-10-16T18:04:15.828Z,91.53
2023-10-16T18:06:52.086Z,87.63
2023-10-16T18:09:25.760Z,87.92
2023-10-16T18:12:04.886Z,88.36
2023-10-16T18:14:39.735Z,91.38
2023-10-16T18:17:14.294Z,87.86
2023-10-16T18:19:50.290Z,97.04
2023-10-16T18:22:25.889Z,96.51
2023-10-16T18:24:59.060Z,100.08
2023-10-16T18:27:33.419Z,105.86
2023-10-16T18:30:11.236Z,102.15
2023-10-16T18:32:46.583Z,99.93
2023-10-16T18:35:19.933Z,94.84
2023-10-16T18:37:53.146Z,98.64
2023-10-16T18:40:26.362Z,93.78
2023-10-16T18:42:59.681Z,94.40
2023-10-16T18:45:36.049Z,101.70
2023-10-16T18:48:11.234Z,103.02
2023-10-16T18:50:44.489Z,112.16
2023-10-16T18:53:17.708Z,110.24
2023-10-16T18:55:52.401Z,109.74
2023-10-16T18:58:26.120Z,107.88
2023-10-16T19:01:05.364Z,107.81
2023-10-16T19:03:40.047Z,114.55
2023-10-16T19:06:13.798Z,122.95
2023-10-16T19:08:47.117Z,117.12
2023-10-16T19:11:20.909Z,116.81
2023-10-16T19:13:55.250Z,108.92
2023-10-16T19:16:28.561Z,96.33
2023-10-16T19:19:03.353Z,96.31
2023-10-16T19:21:39.148Z,93.13
2023-10-16T19:24:14.698Z,94.84
2023-10-16T19:26:47.959Z,92.80
2023-10-16T19:29:21.208Z,93.63
2023-10-16T19:31:54.913Z,90.25
2023-10-16T19:34:30.159Z,89.53
2023-10-16T19:37:03.377Z,82.15
2023-10-16T19:39:36.734Z,80.51
2023-10-16T19:42:11.454Z,81.86
2023-10-16T19:44:44.719Z,83.76
2023-10-16T19:47:17.961Z,86.32
2023-10-16T19:49:52.568Z,92.63
2023-10-16T19:52:26.448Z,87.43
2023-10-16T19:54:59.590Z,84.81
2023-10-16T19:57:32.911Z,89.20
2023-10-16T20:00:18.047Z,82.85
2023-10-16T20:02:52.048Z,87.51
2023-10-16T20:05:27.178Z,87.30
2023-10-16T20:08:02.315Z,77.96
2023-10-16T20:10:37.305Z,78.33
2023-10-16T20:13:11.276Z,83.60
2023-10-16T20:15:47.534Z,82.69
2023-10-16T20:18:21.157Z,78.72
2023-10-16T20:21:02.883Z,75.18
2023-10-16T20:23:37.399Z,74.15
2023-10-16T20:26:17.031Z,70.88
2023-10-16T20:28:51.081Z,67.43
2023-10-16T20:31:25.929Z,69.44
2023-10-16T20:34:00.452Z,72.81
2023-10-16T20:36:36.706Z,69.63
2023-10-16T20:39:10.936Z,67.91
2023-10-16T20:41:44.242Z,67.41
2023-10-16T20:44:17.378Z,67.25
2023-10-16T20:46:51.428Z,65.58
2023-10-16T20:49:24.680Z,64.03
2023-10-16T20:51:59.473Z,66.49
2023-10-16T20:54:32.753Z,65.66
2023-10-16T20:57:06.445Z,69.21
2023-10-16T20:59:39.625Z,73.69
2023-10-16T21:02:13.226Z,73.21
2023-10-16T21:04:46.591Z,71.24
2023-10-16T21:07:21.226Z,73.53
2023-10-16T21:09:54.511Z,72.82
2023-10-16T21:12:27.790Z,77.93
2023-10-16T21:15:01.074Z,74.94
2023-10-16T21:17:34.435Z,74.95
2023-10-16T21:20:10.776Z,74.10
2023-10-16T21:22:47.185Z,75.44
2023-10-16T21:25:22.863Z,73.90
2023-10-16T21:27:56.085Z,73.85
2023-10-16T21:30:29.826Z,79.14
2023-10-16T21:33:03.778Z,84.91
2023-10-16T21:35:39.328Z,78.57
2023-10-16T21:38:13.838Z,79.70
2023-10-16T21:40:47.092Z,82.45
2023-10-16T21:43:20.651Z,81.40
2023-10-16T21:45:56.304Z,80.44
2023-10-16T21:48:29.689Z,80.58
2023-10-16T21:51:03.641Z,87.69
2023-10-16T21:53:39.104Z,85.51
2023-10-16T21:56:12.281Z,90.81
2023-10-16T21:58:45.865Z,89.74
2023-10-16T22:01:19.415Z,88.61
2023-10-16T22:03:54.284Z,90.00
2023-10-16T22:06:31.978Z,92.15
2023-10-16T22:09:11.190Z,89.38
2023-10-16T22:11:46.522Z,93.60
2023-10-16T22:14:21.155Z,92.15
2023-10-16T22:16:55.959Z,91.47
2023-10-16T22:19:31.230Z,96.78
2023-10-16T22:22:08.259Z,96.10
2023-10-16T22:24:43.394Z,95.52
2023-10-16T22:27:17.363Z,95.19
2023-10-16T22:29:50.712Z,98.26
2023-10-16T22:32:24.171Z,94.17
2023-10-16T22:34:57.327Z,98.22
2023-10-16T22:37:30.572Z,98.11
2023-10-16T22:40:09.335Z,95.52
2023-10-16T22:42:42.706Z,92.42
2023-10-16T22:45:16.875Z,96.63
2023-10-16T22:47:52.750Z,92.82
2023-10-16T22:50:26.177Z,95.71
2023-10-16T22:53:00.035Z,89.76
2023-10-16T22:55:37.007Z,94.83
2023-10-16T22:58:10.270Z,99.64
2023-10-16T23:00:44.358Z,99.64
2023-10-16T23:03:36.636Z,103.85
2023-10-16T23:06:11.186Z,102.44
2023-10-16T23:08:53.470Z,110.49
2023-10-16T23:11:50.449Z,108.31
2023-10-16T23:14:23.743Z,109.44
2023-10-16T23:17:19.069Z,111.83
2023-10-16T23:19:52.613Z,111.09
2023-10-16T23:22:26.199Z,107.66
2023-10-16T23:24:59.362Z,115.21
2023-10-16T23:27:34.021Z,109.11
2023-10-16T23:30:08.551Z,111.65
2023-10-16T23:32:41.831Z,106.39
2023-10-16T23:35:21.340Z,111.93
2023-10-16T23:37:54.569Z,111.85
2023-10-16T23:40:41.662Z,116.64
2023-10-16T23:43:16.829Z,118.98
2023-10-16T23:45:52.528Z,118.75
2023-10-16T23:48:32.571Z,125.56
2023-10-16T23:51:12.058Z,126.12
2023-10-16T23:53:48.885Z,123.65
2023-10-16T23:56:39.119Z,124.86
2023-10-16T23:59:15.286Z,124.96
